Time;durP1;ratioP1;P1;durP2;ratioP2;P2;SDS_P1;SDS_P2;PMS_P1;PMS_P2;Temp;Humidity;BMP_temperature;BMP_pressure;BME280_temperature;BME280_humidity;BME280_pressure;Samples;Min_cycle;Max_cycle;Signal;HPM_P1;HPM_P2
2023/01/23 00:01:21;;;;;;;14.48;4.57;;;3.60;99.90;;;;;;5067667;28;20035;-74
2023/01/23 00:03:46;;;;;;;11.13;4.53;;;3.60;99.90;;;;;;5066474;28;20067;-74
2023/01/23 00:06:14;;;;;;;12.95;4.60;;;3.70;99.90;;;;;;5066370;28;20466;-76
2023/01/23 00:08:43;;;;;;;13.77;4.45;;;3.60;99.90;;;;;;5066677;28;20036;-74
2023/01/23 00:11:13;;;;;;;12.02;4.80;;;3.60;99.90;;;;;;5066430;28;20025;-74
2023/01/23 00:13:39;;;;;;;10.95;4.53;;;3.70;99.90;;;;;;5066102;28;20436;-74
2023/01/23 00:16:06;;;;;;;11.57;4.82;;;3.70;99.90;;;;;;5066827;28;20037;-73
2023/01/23 00:18:32;;;;;;;9.88;4.13;;;3.60;99.90;;;;;;5067296;28;20032;-73
2023/01/23 00:21:02;;;;;;;11.98;4.50;;;3.60;99.90;;;;;;5066382;28;20025;-73
2023/01/23 00:23:27;;;;;;;13.32;5.15;;;3.60;99.90;;;;;;5065765;28;20041;-72
2023/01/23 00:25:53;;;;;;;9.30;4.72;;;3.50;99.90;;;;;;5067041;28;20218;-74
2023/01/23 00:28:18;;;;;;;11.52;4.80;;;3.60;99.90;;;;;;5066083;28;20043;-73
2023/01/23 00:30:44;;;;;;;10.57;4.32;;;3.50;99.90;;;;;;5067500;28;20021;-74
2023/01/23 00:33:09;;;;;;;11.02;5.07;;;3.50;99.90;;;;;;5067497;28;20085;-75
2023/01/23 00:35:35;;;;;;;14.18;4.80;;;3.50;99.90;;;;;;5066562;28;20397;-74
2023/01/23 00:38:01;;;;;;;10.57;4.43;;;3.50;99.90;;;;;;5065877;28;20060;-74
2023/01/23 00:40:26;;;;;;;10.02;4.32;;;3.50;99.90;;;;;;5064229;28;20048;-74
2023/01/23 00:42:53;;;;;;;12.40;5.38;;;3.50;99.90;;;;;;5062971;28;20013;-75
2023/01/23 00:45:18;;;;;;;11.48;4.90;;;3.50;99.90;;;;;;5064263;28;20134;-74
2023/01/23 00:47:44;;;;;;;11.57;5.40;;;3.50;99.90;;;;;;5062789;28;20498;-75
2023/01/23 00:50:10;;;;;;;10.90;4.90;;;3.50;99.90;;;;;;5062872;28;20055;-74
2023/01/23 00:52:36;;;;;;;10.75;5.03;;;3.50;99.90;;;;;;5063930;28;20021;-74
2023/01/23 00:55:02;;;;;;;13.50;5.30;;;3.50;99.90;;;;;;5064260;28;20450;-74
2023/01/23 00:57:29;;;;;;;10.07;4.50;;;3.50;99.90;;;;;;5063708;28;20044;-74
2023/01/23 00:59:54;;;;;;;12.20;5.00;;;3.50;99.90;;;;;;5064222;28;20024;-74
2023/01/23 01:02:20;;;;;;;12.30;5.50;;;3.50;99.90;;;;;;5062579;28;20025;-74
2023/01/23 01:04:45;;;;;;;9.70;4.57;;;3.50;99.90;;;;;;5062425;28;20044;-73
2023/01/23 01:07:11;;;;;;;11.13;4.78;;;3.50;99.90;;;;;;5063328;28;20084;-74
2023/01/23 01:09:36;;;;;;;8.57;4.82;;;3.50;99.90;;;;;;5063207;28;20071;-74
2023/01/23 01:12:02;;;;;;;15.98;5.28;;;3.50;99.90;;;;;;5062134;28;20039;-73
2023/01/23 01:14:28;;;;;;;11.55;5.00;;;3.50;99.90;;;;;;5063414;28;20021;-73
2023/01/23 01:16:53;;;;;;;13.52;4.78;;;3.50;99.90;;;;;;5063478;28;20033;-73
2023/01/23 01:19:19;;;;;;;10.85;5.45;;;3.50;99.90;;;;;;5062124;28;20021;-73
2023/01/23 01:21:45;;;;;;;15.93;5.60;;;3.50;99.90;;;;;;5063478;28;20037;-74
2023/01/23 01:24:10;;;;;;;11.50;5.05;;;3.50;99.90;;;;;;5062220;28;20021;-74
2023/01/23 01:26:36;;;;;;;13.95;4.90;;;3.50;99.90;;;;;;5063441;28;20084;-74
2023/01/23 01:29:02;;;;;;;16.88;4.68;;;3.50;99.90;;;;;;5062463;28;20028;-73
2023/01/23 01:31:28;;;;;;;10.68;4.65;;;3.50;99.90;;;;;;5063376;28;20053;-73
2023/01/23 01:33:54;;;;;;;13.38;5.15;;;3.50;99.90;;;;;;5061631;28;20028;-74
2023/01/23 01:36:21;;;;;;;12.85;4.63;;;3.50;99.90;;;;;;5062100;28;20391;-74
2023/01/23 01:38:47;;;;;;;9.88;4.50;;;3.50;99.90;;;;;;5062986;28;20047;-74
2023/01/23 01:41:14;;;;;;;10.02;4.40;;;3.50;99.90;;;;;;5062995;28;20033;-75
2023/01/23 01:43:40;;;;;;;9.43;4.32;;;3.40;99.90;;;;;;5063376;28;20058;-75
2023/01/23 01:46:14;;;;;;;14.90;3.83;;;3.40;99.90;;;;;;5062760;28;20084;-74
2023/01/23 01:49:00;;;;;;;16.15;5.03;;;3.40;99.90;;;;;;5058311;28;20021;-74
2023/01/23 01:51:30;;;;;;;10.30;4.38;;;3.40;99.90;;;;;;5060544;28;20101;-73
2023/01/23 01:54:35;;;;;;;10.95;4.20;;;3.40;99.90;;;;;;5060232;28;20068;-74
2023/01/23 01:57:08;;;;;;;11.43;4.82;;;3.40;99.90;;;;;;5062175;28;20017;-74
2023/01/23 01:59:39;;;;;;;10.32;4.53;;;3.40;99.90;;;;;;5062816;28;20029;-74
2023/01/23 02:02:10;;;;;;;11.77;4.40;;;3.40;99.90;;;;;;5062371;28;20071;-74
2023/01/23 02:04:42;;;;;;;11.07;4.25;;;3.30;99.90;;;;;;5061410;28;20055;-74
2023/01/23 02:07:29;;;;;;;19.77;4.60;;;3.30;99.90;;;;;;5061499;28;20025;-74
2023/01/23 02:09:55;;;;;;;10.68;4.60;;;3.40;99.90;;;;;;5062095;28;20020;-73
2023/01/23 02:12:20;;;;;;;19.98;4.90;;;3.40;99.90;;;;;;5062275;28;20071;-75
2023/01/23 02:14:46;;;;;;;13.23;4.82;;;3.40;99.90;;;;;;5061187;28;20021;-75
2023/01/23 02:17:12;;;;;;;10.75;4.88;;;3.40;99.90;;;;;;5062716;28;20041;-74
2023/01/23 02:20:16;;;;;;;11.80;4.32;;;3.30;99.90;;;;;;5061439;28;20367;-75
2023/01/23 02:23:09;;;;;;;16.87;5.03;;;3.30;99.90;;;;;;5059433;28;20048;-74
2023/01/23 02:25:44;;;;;;;12.52;4.80;;;3.40;99.90;;;;;;5061256;28;20040;-73
2023/01/23 02:28:11;;;;;;;11.20;4.90;;;3.40;99.90;;;;;;5060005;28;20086;-74
2023/01/23 02:30:39;;;;;;;14.40;4.82;;;3.40;99.90;;;;;;5061956;28;20048;-74
2023/01/23 02:33:30;;;;;;;13.50;5.07;;;3.30;99.90;;;;;;5062377;28;20029;-74
2023/01/23 02:35:57;;;;;;;14.23;5.15;;;3.30;99.90;;;;;;5060325;28;20025;-74
2023/01/23 02:38:31;;;;;;;12.00;4.78;;;3.40;99.90;;;;;;5061730;28;20025;-74
2023/01/23 02:41:01;;;;;;;12.55;4.47;;;3.40;99.90;;;;;;5060241;28;20021;-74
2023/01/23 02:43:33;;;;;;;13.88;4.63;;;3.40;99.90;;;;;;5062192;28;20064;-74
2023/01/23 02:46:01;;;;;;;11.15;4.57;;;3.40;99.90;;;;;;5060592;28;20033;-74
2023/01/23 02:48:27;;;;;;;16.10;5.15;;;3.30;99.90;;;;;;5061726;28;20079;-75
2023/01/23 02:50:53;;;;;;;8.45;4.45;;;3.30;99.90;;;;;;5060565;28;20017;-75
2023/01/23 02:53:18;;;;;;;15.88;4.50;;;3.30;99.90;;;;;;5062071;28;20037;-75
2023/01/23 02:55:44;;;;;;;12.05;4.70;;;3.30;99.90;;;;;;5060707;28;20080;-76
2023/01/23 03:00:54;;;;;;;;;;;3.40;99.90;;;;;;5062255;28;20032;-74
2023/01/23 03:03:20;;;;;;;9.75;4.32;;;3.30;99.90;;;;;;5060115;28;19912;-74
2023/01/23 03:05:46;;;;;;;14.00;4.82;;;3.30;99.90;;;;;;5060838;28;20017;-74
2023/01/23 03:08:11;;;;;;;9.98;4.53;;;3.30;99.90;;;;;;5059701;28;20048;-74
2023/01/23 03:10:37;;;;;;;8.75;4.57;;;3.40;99.90;;;;;;5060852;28;20029;-75
2023/01/23 03:13:06;;;;;;;11.20;4.90;;;3.40;99.90;;;;;;5059555;28;20060;-75
2023/01/23 03:15:37;;;;;;;11.25;5.28;;;3.40;99.90;;;;;;5059462;28;20028;-74
2023/01/23 03:18:03;;;;;;;13.38;5.20;;;3.40;99.90;;;;;;5060921;28;20079;-74
2023/01/23 03:20:28;;;;;;;15.70;5.53;;;3.40;99.90;;;;;;5061533;28;20033;-74
2023/01/23 03:22:55;;;;;;;12.15;5.25;;;3.40;99.90;;;;;;5061177;28;20139;-75
2023/01/23 03:25:21;;;;;;;11.57;4.72;;;3.40;99.90;;;;;;5060165;28;20055;-74
2023/01/23 03:27:47;;;;;;;12.77;5.05;;;3.40;99.90;;;;;;5061246;28;20021;-74
2023/01/23 03:30:15;;;;;;;10.07;5.28;;;3.40;99.90;;;;;;5060184;28;20013;-75
2023/01/23 03:32:45;;;;;;;16.67;5.68;;;3.40;99.90;;;;;;5060267;28;20017;-73
2023/01/23 03:35:15;;;;;;;16.60;5.72;;;3.40;99.90;;;;;;5061524;28;20025;-74
2023/01/23 03:37:42;;;;;;;11.98;5.30;;;3.30;99.90;;;;;;5061587;28;20052;-74
2023/01/23 03:43:00;;;;;;;18.02;5.22;;;3.30;99.90;;;;;;5061468;28;20028;-74
2023/01/23 03:45:25;;;;;;;10.15;5.38;;;3.30;99.90;;;;;;5061500;28;20029;-74
2023/01/23 03:47:51;;;;;;;8.80;4.97;;;3.30;99.90;;;;;;5061091;28;20017;-75
2023/01/23 03:50:16;;;;;;;14.88;5.35;;;3.30;99.90;;;;;;5060049;28;20642;-75
2023/01/23 03:52:42;;;;;;;14.65;5.72;;;3.30;99.90;;;;;;5061319;28;20060;-75
2023/01/23 03:55:08;;;;;;;11.50;6.10;;;3.30;99.90;;;;;;5060096;28;20013;-75
2023/01/23 03:57:33;;;;;;;18.27;5.57;;;3.30;99.90;;;;;;5059701;28;20048;-75
2023/01/23 03:59:59;;;;;;;12.02;5.97;;;3.30;99.90;;;;;;5061060;28;20111;-75
2023/01/23 04:02:25;;;;;;;14.77;5.97;;;3.30;99.90;;;;;;5059803;28;20021;-74
2023/01/23 04:04:50;;;;;;;13.38;5.78;;;3.20;99.90;;;;;;5059928;28;20032;-74
2023/01/23 04:07:16;;;;;;;12.35;5.78;;;3.20;99.90;;;;;;5058980;28;20056;-75
2023/01/23 04:09:41;;;;;;;14.23;5.30;;;3.20;99.90;;;;;;5061066;28;20029;-75
2023/01/23 04:12:07;;;;;;;16.52;6.20;;;3.30;99.90;;;;;;5061147;28;20040;-74
2023/01/23 04:14:36;;;;;;;15.32;5.68;;;3.30;99.90;;;;;;5061360;28;20081;-74
2023/01/23 04:17:03;;;;;;;13.70;5.57;;;3.30;99.90;;;;;;5063514;28;21192;-74
2023/01/23 04:19:29;;;;;;;14.93;5.70;;;3.30;99.90;;;;;;5062739;28;20021;-75
2023/01/23 04:21:54;;;;;;;13.68;5.38;;;3.30;99.90;;;;;;5064238;28;20029;-74
2023/01/23 04:24:20;;;;;;;14.45;5.35;;;3.30;99.90;;;;;;5064763;28;20035;-74
2023/01/23 04:26:45;;;;;;;12.30;5.00;;;3.30;99.90;;;;;;5064380;28;20036;-75
2023/01/23 04:29:11;;;;;;;15.55;5.20;;;3.20;99.90;;;;;;5064682;28;20096;-75
2023/01/23 04:31:37;;;;;;;11.98;5.03;;;3.20;99.90;;;;;;5064657;28;20390;-74
2023/01/23 04:34:03;;;;;;;11.07;4.85;;;3.20;99.90;;;;;;5063446;28;20021;-74
2023/01/23 04:36:28;;;;;;;10.82;5.20;;;3.20;99.90;;;;;;5064127;28;20543;-75
2023/01/23 04:38:54;;;;;;;13.10;5.35;;;3.20;99.90;;;;;;5064211;28;20028;-75
2023/01/23 04:41:22;;;;;;;8.77;5.00;;;3.20;99.90;;;;;;5062753;28;20036;-74
2023/01/23 04:43:48;;;;;;;12.02;5.05;;;3.20;99.90;;;;;;5062905;28;20025;-74
2023/01/23 04:46:14;;;;;;;10.25;5.10;;;3.20;99.90;;;;;;5064292;28;20032;-75
2023/01/23 04:48:39;;;;;;;11.85;5.38;;;3.30;99.90;;;;;;5063471;28;20033;-75
2023/01/23 04:51:05;;;;;;;15.63;5.75;;;3.20;99.90;;;;;;5064338;28;20031;-75
2023/01/23 04:53:31;;;;;;;12.73;5.80;;;3.20;99.90;;;;;;5063312;28;20037;-75
2023/01/23 04:55:56;;;;;;;12.05;5.78;;;3.20;99.90;;;;;;5062409;28;20048;-74
2023/01/23 04:58:22;;;;;;;10.80;5.65;;;3.20;99.90;;;;;;5063947;28;20029;-75
2023/01/23 05:00:48;;;;;;;19.20;6.13;;;3.20;99.90;;;;;;5062644;28;20021;-75
2023/01/23 05:03:14;;;;;;;14.57;6.03;;;3.20;99.90;;;;;;5063257;28;20390;-75
2023/01/23 05:05:41;;;;;;;15.80;6.55;;;3.20;99.90;;;;;;5062625;28;20017;-75
2023/01/23 05:08:07;;;;;;;10.75;6.18;;;3.20;99.90;;;;;;5063607;28;20013;-75
2023/01/23 05:10:33;;;;;;;16.33;6.68;;;3.20;99.90;;;;;;5064027;28;20501;-75
2023/01/23 05:12:58;;;;;;;11.85;6.55;;;3.20;99.90;;;;;;5063444;28;20024;-75
2023/01/23 05:15:24;;;;;;;12.52;6.07;;;3.20;99.90;;;;;;5063714;28;20024;-74
2023/01/23 05:17:49;;;;;;;14.27;6.30;;;3.20;99.90;;;;;;5062106;28;20040;-75
2023/01/23 05:20:15;;;;;;;14.38;6.55;;;3.20;99.90;;;;;;5062181;28;20029;-74
2023/01/23 05:22:51;;;;;;;12.13;6.80;;;3.20;99.90;;;;;;5061840;28;20084;-75
2023/01/23 05:25:24;;;;;;;18.25;7.68;;;3.10;99.90;;;;;;5063230;28;20045;-75
2023/01/23 05:27:50;;;;;;;15.00;7.25;;;3.10;99.90;;;;;;5063116;28;20084;-75
2023/01/23 05:30:16;;;;;;;17.20;7.65;;;3.10;99.90;;;;;;5063025;28;20033;-75
2023/01/23 05:32:42;;;;;;;21.15;8.02;;;3.10;99.90;;;;;;5061868;28;20025;-76
2023/01/23 05:35:09;;;;;;;21.33;7.95;;;3.10;99.90;;;;;;5063423;28;20164;-76
2023/01/23 05:37:34;;;;;;;18.65;8.07;;;3.20;99.90;;;;;;5063617;28;20066;-74
2023/01/23 05:40:00;;;;;;;16.92;8.35;;;3.10;99.90;;;;;;5062520;28;20052;-74
2023/01/23 05:42:25;;;;;;;19.70;8.43;;;3.10;99.90;;;;;;5063180;28;20029;-75
2023/01/23 05:44:51;;;;;;;15.07;7.85;;;3.10;99.90;;;;;;5062866;28;20052;-75
2023/01/23 05:47:17;;;;;;;23.10;8.30;;;3.00;99.90;;;;;;5061736;28;20355;-75
2023/01/23 05:49:44;;;;;;;17.90;8.75;;;3.10;99.90;;;;;;5063046;28;20031;-74
2023/01/23 05:52:10;;;;;;;21.08;9.15;;;3.10;99.90;;;;;;5062843;28;20041;-75
2023/01/23 05:54:35;;;;;;;18.33;8.25;;;3.10;99.90;;;;;;5063199;28;20032;-76
2023/01/23 05:57:01;;;;;;;20.52;9.35;;;3.10;99.90;;;;;;5062832;28;20033;-74
2023/01/23 05:59:26;;;;;;;25.63;10.25;;;3.10;99.90;;;;;;5061570;28;20065;-75
2023/01/23 06:01:52;;;;;;;19.80;9.57;;;3.10;99.90;;;;;;5062503;28;20043;-75
2023/01/23 06:04:18;;;;;;;19.88;9.73;;;3.10;99.90;;;;;;5062713;28;20073;-75
2023/01/23 06:06:43;;;;;;;19.15;10.07;;;3.10;99.90;;;;;;5062874;28;20056;-75
2023/01/23 06:09:09;;;;;;;22.60;9.90;;;3.10;99.90;;;;;;5061466;28;20034;-74
2023/01/23 06:11:35;;;;;;;19.77;9.77;;;3.10;99.90;;;;;;5062999;28;20029;-75
2023/01/23 06:14:01;;;;;;;22.65;10.02;;;3.00;99.90;;;;;;5061278;28;20025;-75
2023/01/23 06:16:26;;;;;;;26.77;11.80;;;3.10;99.90;;;;;;5062380;28;20037;-74
2023/01/23 06:18:52;;;;;;;22.52;10.82;;;3.10;99.90;;;;;;5062358;28;20047;-74
2023/01/23 06:21:18;;;;;;;23.17;11.30;;;3.10;99.90;;;;;;5058233;28;20028;-75
2023/01/23 06:23:44;;;;;;;25.30;10.77;;;3.10;99.90;;;;;;5060979;28;20080;-74
2023/01/23 06:26:10;;;;;;;23.95;11.30;;;3.00;99.90;;;;;;5061037;28;20063;-75
2023/01/23 06:28:35;;;;;;;22.67;11.45;;;3.10;99.90;;;;;;5061316;28;20025;-75
2023/01/23 06:31:02;;;;;;;25.98;11.73;;;3.00;99.90;;;;;;5062401;28;20021;-74
2023/01/23 06:33:29;;;;;;;25.08;11.73;;;3.10;99.90;;;;;;5061897;28;20080;-74
2023/01/23 06:36:04;;;;;;;26.65;12.10;;;3.00;99.90;;;;;;5060412;28;20047;-74
2023/01/23 06:38:30;;;;;;;28.23;12.00;;;3.10;99.90;;;;;;5057437;28;20100;-74
2023/01/23 06:40:56;;;;;;;29.67;12.13;;;3.00;99.90;;;;;;5061514;28;20072;-74
2023/01/23 06:43:23;;;;;;;24.10;10.95;;;3.00;99.90;;;;;;5061549;28;20021;-73
2023/01/23 06:45:48;;;;;;;27.00;11.88;;;3.00;99.90;;;;;;5058611;28;20063;-75
2023/01/23 06:48:14;;;;;;;25.92;11.85;;;3.10;99.90;;;;;;5058850;28;20626;-74
2023/01/23 06:50:41;;;;;;;25.17;11.95;;;3.00;99.90;;;;;;5060056;28;20017;-74
2023/01/23 06:53:08;;;;;;;26.92;12.13;;;3.00;99.90;;;;;;5057951;28;20048;-74
2023/01/23 06:55:34;;;;;;;27.83;11.57;;;3.00;99.90;;;;;;5050272;28;20066;-74
2023/01/23 06:58:00;;;;;;;30.23;12.32;;;3.00;99.90;;;;;;5051160;28;20124;-75
2023/01/23 07:00:26;;;;;;;30.45;12.43;;;3.00;99.90;;;;;;5054800;28;21073;-72
2023/01/23 07:02:51;;;;;;;24.30;11.77;;;3.00;99.90;;;;;;5058830;28;20093;-71
2023/01/23 07:05:18;;;;;;;27.27;12.25;;;3.00;99.90;;;;;;5074719;28;20025;-71
2023/01/23 07:07:44;;;;;;;21.85;10.32;;;3.00;99.90;;;;;;5057271;28;20057;-73
2023/01/23 07:10:11;;;;;;;24.50;11.20;;;3.00;99.90;;;;;;5058987;28;20035;-74
2023/01/23 07:12:36;;;;;;;25.35;12.05;;;3.00;99.90;;;;;;5057710;28;20032;-73
2023/01/23 07:15:03;;;;;;;24.13;10.98;;;3.00;99.90;;;;;;5057715;28;20025;-71
2023/01/23 07:17:29;;;;;;;25.40;11.88;;;3.00;99.90;;;;;;5059142;28;20040;-72
2023/01/23 07:19:54;;;;;;;29.52;11.00;;;3.00;99.90;;;;;;5060028;28;20025;-74
2023/01/23 07:22:21;;;;;;;26.70;12.13;;;3.00;99.90;;;;;;5058976;28;20056;-72
2023/01/23 07:24:47;;;;;;;25.42;12.35;;;3.00;99.90;;;;;;5058428;28;20021;-72
2023/01/23 07:27:13;;;;;;;24.38;11.63;;;3.00;99.90;;;;;;5058766;28;20029;-75
2023/01/23 07:29:39;;;;;;;25.40;11.65;;;3.00;99.90;;;;;;5059280;28;20032;-74
2023/01/23 07:32:05;;;;;;;24.05;11.93;;;3.00;99.90;;;;;;5057844;28;20025;-72
2023/01/23 07:34:31;;;;;;;28.20;12.23;;;3.10;99.90;;;;;;5060731;28;20029;-72
2023/01/23 07:36:57;;;;;;;31.42;13.10;;;3.10;99.90;;;;;;5060524;28;20457;-72
2023/01/23 07:39:23;;;;;;;26.02;12.27;;;3.10;99.90;;;;;;5059714;28;20063;-71
2023/01/23 07:41:48;;;;;;;25.48;12.02;;;3.10;99.90;;;;;;5059886;28;20021;-71
2023/01/23 07:44:17;;;;;;;29.30;12.93;;;3.10;99.90;;;;;;5057084;28;20031;-72
2023/01/23 07:46:44;;;;;;;29.55;12.77;;;3.10;99.90;;;;;;5058749;28;20021;-73
2023/01/23 07:49:09;;;;;;;27.02;12.43;;;3.10;99.90;;;;;;5058785;28;20021;-72
2023/01/23 07:51:35;;;;;;;26.83;12.55;;;3.10;99.90;;;;;;5064479;28;20765;-72
2023/01/23 07:54:01;;;;;;;24.70;12.13;;;3.20;99.90;;;;;;5064629;28;20028;-72
2023/01/23 07:56:27;;;;;;;31.60;11.80;;;3.10;99.90;;;;;;5062844;28;20045;-71
2023/01/23 07:58:52;;;;;;;28.02;12.35;;;3.10;99.90;;;;;;5063063;28;20021;-72
2023/01/23 08:01:18;;;;;;;26.42;12.05;;;3.20;99.90;;;;;;5064143;28;20036;-72
2023/01/23 08:03:44;;;;;;;29.23;12.82;;;3.20;99.90;;;;;;5063635;28;20028;-72
2023/01/23 08:06:10;;;;;;;30.38;12.52;;;3.20;99.90;;;;;;5063223;28;20036;-74
2023/01/23 08:08:36;;;;;;;27.33;12.80;;;3.20;99.90;;;;;;5062842;28;20082;-74
2023/01/23 08:11:10;;;;;;;25.90;12.18;;;3.20;99.90;;;;;;5062741;28;20035;-74
2023/01/23 08:13:36;;;;;;;;;;;3.20;99.90;;;;;;5064669;28;20032;-75
2023/01/23 08:16:02;;;;;;;26.50;11.25;;;3.20;99.90;;;;;;5063932;28;19905;-74
2023/01/23 08:18:29;;;;;;;25.00;12.23;;;3.20;99.90;;;;;;5062675;28;20097;-73
2023/01/23 08:20:56;;;;;;;29.48;13.02;;;3.30;99.90;;;;;;5063577;28;20117;-74
2023/01/23 08:23:27;;;;;;;26.60;12.60;;;3.30;99.90;;;;;;5063329;28;20049;-74
2023/01/23 08:25:54;;;;;;;31.40;13.10;;;3.30;99.90;;;;;;5062476;28;20033;-73
2023/01/23 08:28:20;;;;;;;34.13;13.05;;;3.30;99.90;;;;;;5063359;28;20531;-73
2023/01/23 08:30:46;;;;;;;30.23;13.00;;;3.30;99.90;;;;;;5063914;28;20093;-74
2023/01/23 08:33:12;;;;;;;28.17;13.55;;;3.30;99.90;;;;;;5061032;28;20021;-74
2023/01/23 08:35:37;;;;;;;30.15;12.85;;;3.30;99.90;;;;;;5063620;28;20057;-75
2023/01/23 08:38:04;;;;;;;26.58;12.32;;;3.40;99.90;;;;;;5062174;28;20119;-74
2023/01/23 08:40:30;;;;;;;28.60;12.70;;;3.40;99.90;;;;;;5062045;28;20029;-75
2023/01/23 08:42:55;;;;;;;28.20;12.55;;;3.40;99.90;;;;;;5063689;28;20070;-75
2023/01/23 08:45:21;;;;;;;27.70;13.07;;;3.40;99.90;;;;;;5061661;28;20029;-74
2023/01/23 08:47:47;;;;;;;25.38;11.90;;;3.30;99.90;;;;;;5061649;28;20025;-74
2023/01/23 08:50:13;;;;;;;31.20;13.75;;;3.30;99.90;;;;;;5063753;28;20048;-72
2023/01/23 08:52:39;;;;;;;27.33;12.50;;;3.30;99.90;;;;;;5061026;28;20021;-75
2023/01/23 08:55:05;;;;;;;34.53;13.02;;;3.30;99.90;;;;;;5061726;28;20037;-73
2023/01/23 08:57:30;;;;;;;33.58;13.50;;;3.30;99.90;;;;;;5062514;28;20064;-74
2023/01/23 08:59:56;;;;;;;29.33;13.38;;;3.30;99.90;;;;;;5063393;28;20045;-74
2023/01/23 09:02:22;;;;;;;30.08;13.73;;;3.30;99.90;;;;;;5060696;28;20025;-73
2023/01/23 09:04:47;;;;;;;30.30;13.65;;;3.40;99.90;;;;;;5063060;28;20025;-74
2023/01/23 09:07:13;;;;;;;27.10;13.40;;;3.40;99.90;;;;;;5059779;28;20116;-74
2023/01/23 09:09:39;;;;;;;29.23;13.07;;;3.40;99.90;;;;;;5060826;28;20025;-73
2023/01/23 09:12:04;;;;;;;32.22;14.02;;;3.50;99.90;;;;;;5060863;28;20033;-74
2023/01/23 09:14:30;;;;;;;28.98;13.35;;;3.40;99.90;;;;;;5060215;28;20033;-74
2023/01/23 09:16:55;;;;;;;29.85;13.38;;;3.50;99.90;;;;;;5059475;28;20048;-73
2023/01/23 09:19:21;;;;;;;31.83;13.85;;;3.50;99.90;;;;;;5063453;28;20033;-73
2023/01/23 09:21:47;;;;;;;29.35;13.75;;;3.50;99.90;;;;;;5059370;28;20021;-75
2023/01/23 09:24:12;;;;;;;31.52;14.55;;;3.50;99.90;;;;;;5061349;28;20049;-74
2023/01/23 09:26:38;;;;;;;28.02;13.35;;;3.50;99.90;;;;;;5063115;28;20025;-76
2023/01/23 09:29:03;;;;;;;25.27;11.65;;;3.50;99.90;;;;;;5062982;28;20367;-73
2023/01/23 09:31:29;;;;;;;31.85;16.25;;;3.50;99.90;;;;;;5059782;28;20029;-73
2023/01/23 09:33:55;;;;;;;30.40;14.18;;;3.50;99.90;;;;;;5060178;28;20020;-74
2023/01/23 09:36:20;;;;;;;32.47;14.40;;;3.60;99.90;;;;;;5060653;28;20045;-74
2023/01/23 09:38:49;;;;;;;27.83;13.05;;;3.50;99.90;;;;;;5062756;28;20146;-72
2023/01/23 09:41:17;;;;;;;29.02;13.15;;;3.60;99.90;;;;;;5061355;28;20100;-74
2023/01/23 09:43:46;;;;;;;26.73;13.45;;;3.60;99.90;;;;;;5061732;28;20036;-73
2023/01/23 09:46:23;;;;;;;26.15;12.68;;;3.60;99.90;;;;;;5061740;28;20021;-74
2023/01/23 09:48:57;;;;;;;28.60;13.40;;;3.60;99.90;;;;;;5062079;28;20466;-73
2023/01/23 09:51:35;;;;;;;26.15;13.18;;;3.60;99.90;;;;;;5060478;28;20431;-74
2023/01/23 09:54:15;;;;;;;26.00;12.68;;;3.70;99.90;;;;;;5061224;28;20500;-73
2023/01/23 09:56:44;;;;;;;28.73;12.43;;;3.70;99.90;;;;;;5057088;28;20056;-76
2023/01/23 09:59:23;;;;;;;26.23;12.90;;;3.70;99.90;;;;;;5057920;28;20035;-77
2023/01/23 10:01:49;;;;;;;24.40;11.52;;;3.70;99.90;;;;;;5059559;28;20405;-75
2023/01/23 10:04:18;;;;;;;28.45;14.02;;;3.80;99.90;;;;;;5058521;28;20043;-75
2023/01/23 10:06:56;;;;;;;26.73;13.05;;;3.70;99.90;;;;;;5059602;28;20030;-74
2023/01/23 10:09:29;;;;;;;23.90;11.82;;;3.80;99.90;;;;;;5058113;28;20052;-73
2023/01/23 10:12:31;;;;;;;25.87;12.93;;;3.90;99.90;;;;;;5060014;28;20505;-73
2023/01/23 10:15:04;;;;;;;27.13;12.35;;;3.80;99.90;;;;;;5059586;28;20474;-74
2023/01/23 10:17:38;;;;;;;28.63;13.10;;;3.80;99.90;;;;;;5061530;28;20040;-73
2023/01/23 10:20:15;;;;;;;;;;;3.80;99.90;;;;;;5061376;28;20283;-74
2023/01/23 10:22:57;;;;;;;27.33;12.23;;;3.80;99.90;;;;;;5062397;28;19921;-75
2023/01/23 10:25:31;;;;;;;24.55;12.38;;;3.80;99.90;;;;;;5062118;28;21169;-73
2023/01/23 10:28:14;;;;;;;26.58;12.60;;;3.80;99.90;;;;;;5061044;28;20032;-74
2023/01/23 10:30:40;;;;;;;25.70;11.75;;;3.80;99.90;;;;;;5062508;28;20013;-74
2023/01/23 10:33:13;;;;;;;25.00;12.07;;;3.90;99.90;;;;;;5059981;28;20025;-73
2023/01/23 10:36:05;;;;;;;28.38;12.75;;;3.90;99.90;;;;;;5060769;28;20482;-72
2023/01/23 10:38:36;;;;;;;26.77;12.80;;;4.00;99.90;;;;;;5059366;28;20056;-75
2023/01/23 10:41:13;;;;;;;29.30;13.13;;;3.90;99.90;;;;;;5059158;28;20115;-76
2023/01/23 10:43:40;;;;;;;29.70;13.20;;;4.00;99.90;;;;;;5060020;28;20071;-74
2023/01/23 10:46:17;;;;;;;27.30;12.27;;;4.00;99.90;;;;;;5058276;28;20029;-74
2023/01/23 10:48:51;;;;;;;30.42;13.63;;;4.00;99.90;;;;;;5058691;28;20044;-76
2023/01/23 10:51:36;;;;;;;26.30;12.30;;;4.00;99.90;;;;;;5058661;28;20051;-75
2023/01/23 10:54:19;;;;;;;27.95;12.90;;;4.00;99.90;;;;;;5059993;28;20498;-75
2023/01/23 10:56:48;;;;;;;26.90;11.90;;;4.10;99.90;;;;;;5057498;28;20040;-74
2023/01/23 10:59:33;;;;;;;25.42;12.45;;;4.10;99.90;;;;;;5058410;28;20041;-74
2023/01/23 11:02:26;;;;;;;27.25;12.02;;;4.10;99.90;;;;;;5058384;28;20033;-79
2023/01/23 11:04:52;;;;;;;24.75;12.48;;;4.10;99.90;;;;;;5059827;28;20025;-75
2023/01/23 11:07:29;;;;;;;26.85;12.65;;;4.10;99.90;;;;;;5059066;28;20025;-74
2023/01/23 11:09:59;;;;;;;26.85;11.73;;;4.20;99.90;;;;;;5060137;28;20037;-76
2023/01/23 11:12:27;;;;;;;26.98;12.95;;;4.10;99.90;;;;;;5058506;28;20472;-73
2023/01/23 11:15:21;;;;;;;27.38;11.68;;;4.20;99.90;;;;;;5060623;28;20017;-76
2023/01/23 11:17:48;;;;;;;26.90;11.93;;;4.20;99.90;;;;;;5057907;28;20049;-75
2023/01/23 11:20:38;;;;;;;27.40;13.07;;;4.20;99.90;;;;;;5060587;28;20025;-75
2023/01/23 11:23:07;;;;;;;28.20;12.25;;;4.20;99.90;;;;;;5057687;28;20057;-75
2023/01/23 11:25:37;;;;;;;30.90;12.85;;;4.20;99.90;;;;;;5056565;28;20033;-75
2023/01/23 11:28:44;;;;;;;24.80;11.57;;;4.30;99.90;;;;;;5056292;28;20013;-75
2023/01/23 11:31:22;;;;;;;27.83;12.05;;;4.30;99.90;;;;;;5058189;28;20110;-75
2023/01/23 11:33:58;;;;;;;26.73;11.77;;;4.30;99.90;;;;;;5056332;28;20031;-75
2023/01/23 11:36:50;;;;;;;31.48;13.32;;;4.40;99.90;;;;;;5052928;28;20486;-74
2023/01/23 11:39:41;;;;;;;32.28;12.75;;;4.40;99.90;;;;;;5056390;28;20104;-74
2023/01/23 11:42:17;;;;;;;27.98;12.65;;;4.40;99.90;;;;;;5056810;28;20110;-74
2023/01/23 11:44:45;;;;;;;23.75;11.57;;;4.60;99.90;;;;;;5058688;28;20061;-74
2023/01/23 11:47:30;;;;;;;26.17;12.15;;;4.40;99.90;;;;;;5059017;28;20028;-75
2023/01/23 11:50:33;;;;;;;22.27;11.38;;;4.40;99.90;;;;;;5060238;28;20052;-74
2023/01/23 11:53:30;;;;;;;27.05;12.77;;;4.50;99.90;;;;;;5060441;28;20017;-74
2023/01/23 11:56:11;;;;;;;22.38;11.50;;;4.50;99.90;;;;;;5058119;28;20032;-75
2023/01/23 11:59:07;;;;;;;26.08;12.55;;;4.50;99.90;;;;;;5057309;28;20037;-73
2023/01/23 12:01:43;;;;;;;28.60;12.27;;;4.50;99.90;;;;;;5056887;28;20052;-73
2023/01/23 12:04:20;;;;;;;23.33;11.55;;;4.60;99.90;;;;;;5050147;28;20049;-73
2023/01/23 12:07:16;;;;;;;22.20;11.35;;;4.60;99.90;;;;;;5049010;28;20029;-73
2023/01/23 12:10:18;;;;;;;26.40;12.52;;;4.60;99.90;;;;;;5057554;28;20033;-73
2023/01/23 12:13:09;;;;;;;25.27;11.93;;;4.50;99.90;;;;;;5051837;28;20029;-75
2023/01/23 12:15:54;;;;;;;22.00;11.10;;;4.50;99.90;;;;;;5049638;28;20037;-75
2023/01/23 12:18:35;;;;;;;31.40;12.45;;;4.50;99.90;;;;;;5047727;28;20041;-74
2023/01/23 12:21:18;;;;;;;24.98;11.40;;;4.50;99.90;;;;;;5043271;28;20044;-73
2023/01/23 12:24:08;;;;;;;24.95;11.82;;;4.60;99.90;;;;;;5042987;28;20493;-74
2023/01/23 12:26:40;;;;;;;28.52;12.75;;;4.60;99.90;;;;;;5041693;28;20033;-74
2023/01/23 12:29:37;;;;;;;25.80;12.18;;;4.70;99.90;;;;;;5041792;28;20034;-75
2023/01/23 12:32:32;;;;;;;21.42;11.10;;;4.70;99.90;;;;;;5042867;28;20033;-73
2023/01/23 12:34:57;;;;;;;25.00;12.15;;;4.70;99.90;;;;;;5043032;28;20029;-74
2023/01/23 12:37:38;;;;;;;23.58;11.90;;;4.70;99.90;;;;;;5043531;28;20127;-73
2023/01/23 12:40:25;;;;;;;28.90;12.32;;;4.70;99.90;;;;;;5061965;28;20037;-74
2023/01/23 12:43:26;;;;;;;24.33;12.32;;;4.80;99.90;;;;;;5047551;28;20030;-75
2023/01/23 12:46:25;;;;;;;23.45;11.50;;;4.80;99.90;;;;;;5063154;28;20041;-74
2023/01/23 12:49:00;;;;;;;28.98;12.50;;;4.90;99.90;;;;;;5058681;28;20037;-74
2023/01/23 12:51:36;;;;;;;28.70;12.43;;;4.80;99.90;;;;;;5045914;28;20032;-75
2023/01/23 12:54:09;;;;;;;29.75;12.10;;;4.70;99.90;;;;;;5049902;28;20048;-75
2023/01/23 12:56:38;;;;;;;27.77;12.20;;;4.80;99.90;;;;;;5045162;28;20497;-74
2023/01/23 12:59:20;;;;;;;28.45;12.50;;;4.80;99.90;;;;;;5046443;28;20082;-75
2023/01/23 13:01:57;;;;;;;25.38;12.13;;;4.90;99.90;;;;;;5062490;28;20033;-74
2023/01/23 13:04:38;;;;;;;22.65;11.57;;;4.80;99.90;;;;;;5044371;28;20040;-74